Аэропорт: Наримановка. Костанай

ICAO: UAUU

METAR:
2024-07-24 16:00:00
UAUU 241600Z 05002MPS CAVOK 18/12 Q1005 NOSIG RMK QFE738/0985
TAF:
2024-07-24 14:01:00
TAF UAUU 241401Z 2415/2424 02005MPS 9999 SCT040 
  TEMPO 2415/2418 01003G08MPS BKN030 
  TEMPO 2418/2424 VRB02MPS